createdAt,value
2018-06-27T00:01:53.974Z,8.30
2018-06-27T00:04:22.735Z,7.40
2018-06-27T00:06:51.439Z,7.87
2018-06-27T00:09:20.356Z,7.73
2018-06-27T00:11:49.103Z,7.80
2018-06-27T00:14:17.848Z,8.10
2018-06-27T00:16:47.312Z,7.03
2018-06-27T00:19:16.155Z,7.73
2018-06-27T00:21:44.899Z,6.87
2018-06-27T00:24:13.699Z,6.63
2018-06-27T00:26:42.633Z,6.57
2018-06-27T00:29:11.470Z,6.93
2018-06-27T00:31:40.272Z,6.27
2018-06-27T00:34:09.159Z,6.63
2018-06-27T00:36:37.836Z,7.60
2018-06-27T00:39:08.707Z,6.53
2018-06-27T00:41:37.607Z,7.13
2018-06-27T00:44:06.524Z,7.43
2018-06-27T00:46:35.605Z,7.63
2018-06-27T00:49:04.483Z,6.97
2018-06-27T00:51:33.623Z,7.60
2018-06-27T00:54:07.686Z,6.87
2018-06-27T00:56:38.263Z,6.63
2018-06-27T00:59:07.140Z,6.73
2018-06-27T01:01:36.872Z,7.60
2018-06-27T01:04:06.049Z,6.43
2018-06-27T01:06:35.145Z,7.20
2018-06-27T01:09:04.987Z,6.90
2018-06-27T01:11:34.782Z,7.47
2018-06-27T01:14:04.128Z,6.63
2018-06-27T01:16:33.564Z,6.87
2018-06-27T01:19:02.876Z,6.77
2018-06-27T01:21:31.872Z,6.80
2018-06-27T01:24:00.972Z,5.50
2018-06-27T01:26:30.432Z,6.77
2018-06-27T01:28:59.775Z,7.00
2018-06-27T01:31:30.025Z,6.10
2018-06-27T01:33:59.297Z,7.20
2018-06-27T01:36:28.310Z,5.90
2018-06-27T01:38:57.015Z,6.10
2018-06-27T01:41:25.683Z,5.53
2018-06-27T01:43:54.363Z,5.83
2018-06-27T01:46:23.120Z,5.30
2018-06-27T01:48:51.802Z,5.80
2018-06-27T01:51:20.527Z,5.03
2018-06-27T01:53:49.253Z,5.87
2018-06-27T01:56:17.956Z,5.60
2018-06-27T01:58:46.651Z,5.83
2018-06-27T02:01:15.318Z,5.83
2018-06-27T02:03:44.264Z,5.17
2018-06-27T02:06:12.999Z,5.10
2018-06-27T02:08:41.855Z,5.43
2018-06-27T02:11:10.579Z,4.73
2018-06-27T02:13:39.288Z,4.40
2018-06-27T02:16:07.972Z,5.17
2018-06-27T02:18:36.658Z,5.40
2018-06-27T02:21:05.320Z,4.83
2018-06-27T02:23:36.294Z,5.33
2018-06-27T02:26:05.075Z,5.23
2018-06-27T02:28:33.796Z,5.00
2018-06-27T02:31:02.541Z,5.47
2018-06-27T02:33:31.304Z,4.83
2018-06-27T02:36:00.330Z,5.00
2018-06-27T02:38:29.235Z,4.83
2018-06-27T02:40:57.866Z,4.30
2018-06-27T02:43:26.514Z,4.50
2018-06-27T02:45:55.359Z,4.97
2018-06-27T02:48:24.038Z,5.10
2018-06-27T02:50:52.660Z,5.63
2018-06-27T02:53:21.353Z,5.50
2018-06-27T02:55:49.979Z,5.57
2018-06-27T02:58:18.663Z,4.67
2018-06-27T03:00:47.330Z,4.80
2018-06-27T03:03:15.994Z,5.77
2018-06-27T03:05:44.624Z,4.90
2018-06-27T03:08:13.317Z,5.40
2018-06-27T03:10:41.994Z,4.57
2018-06-27T03:13:10.643Z,5.47
2018-06-27T03:15:39.337Z,5.27
2018-06-27T03:18:07.991Z,5.80
2018-06-27T03:20:36.646Z,4.90
2018-06-27T03:23:05.983Z,5.00
2018-06-27T03:25:34.630Z,5.80
2018-06-27T03:28:03.288Z,5.30
2018-06-27T03:30:31.948Z,5.43
2018-06-27T03:33:00.595Z,4.87
2018-06-27T03:35:29.274Z,5.90
2018-06-27T03:37:58.170Z,5.80
2018-06-27T03:40:26.916Z,6.00
2018-06-27T03:42:55.574Z,5.80
2018-06-27T03:45:24.259Z,4.93
2018-06-27T03:47:52.957Z,6.00
2018-06-27T03:50:21.571Z,5.10
2018-06-27T03:52:50.242Z,5.60
2018-06-27T03:55:18.920Z,6.00
2018-06-27T03:57:47.578Z,6.40
2018-06-27T04:00:16.216Z,5.60
2018-06-27T04:02:49.939Z,5.47
2018-06-27T04:05:18.640Z,5.90
2018-06-27T04:07:47.327Z,5.40
2018-06-27T04:10:15.991Z,6.03
2018-06-27T04:12:44.761Z,4.80
2018-06-27T04:15:13.572Z,5.50
2018-06-27T04:17:42.223Z,4.93
2018-06-27T04:20:11.549Z,5.53
2018-06-27T04:22:40.164Z,5.10
2018-06-27T04:25:08.884Z,6.20
2018-06-27T04:27:37.552Z,5.40
2018-06-27T04:30:06.355Z,5.37
2018-06-27T04:32:35.041Z,6.07
2018-06-27T04:35:03.820Z,5.50
2018-06-27T04:37:32.595Z,5.50
2018-06-27T04:40:01.430Z,5.60
2018-06-27T04:42:30.522Z,6.10
2018-06-27T04:45:00.242Z,6.37
2018-06-27T04:47:29.134Z,5.63
2018-06-27T04:49:57.964Z,6.30
2018-06-27T04:52:27.205Z,5.17
2018-06-27T04:54:58.424Z,5.23
2018-06-27T04:57:27.336Z,6.77
2018-06-27T04:59:56.050Z,5.83
2018-06-27T05:02:24.930Z,5.67
2018-06-27T05:04:53.769Z,5.83
2018-06-27T05:07:22.490Z,5.40
2018-06-27T05:09:57.093Z,5.40
2018-06-27T05:12:25.753Z,5.57
2018-06-27T05:14:54.460Z,5.83
2018-06-27T05:17:23.215Z,5.97
2018-06-27T05:19:51.940Z,6.30
2018-06-27T05:22:21.470Z,6.63
2018-06-27T05:24:50.922Z,6.50
2018-06-27T05:27:19.818Z,6.60
2018-06-27T05:29:48.459Z,6.20
2018-06-27T05:32:17.211Z,7.03
2018-06-27T05:34:45.943Z,6.60
2018-06-27T05:37:14.835Z,7.50
2018-06-27T05:39:43.627Z,5.80
2018-06-27T05:42:14.392Z,6.37
2018-06-27T05:44:44.114Z,5.90
2018-06-27T05:47:16.036Z,6.67
2018-06-27T05:49:44.774Z,7.13
2018-06-27T05:52:13.510Z,8.80
2018-06-27T05:54:42.262Z,8.77
2018-06-27T05:57:10.998Z,8.00
2018-06-27T05:59:39.816Z,8.60
2018-06-27T06:02:08.551Z,9.50
2018-06-27T06:04:37.266Z,9.40
2018-06-27T06:07:05.968Z,9.70
2018-06-27T06:09:34.597Z,8.90
2018-06-27T06:12:03.222Z,9.77
2018-06-27T06:14:32.004Z,9.17
2018-06-27T06:17:00.768Z,9.23
2018-06-27T06:19:29.467Z,10.70
2018-06-27T06:21:58.134Z,10.70
2018-06-27T06:24:26.819Z,11.37
2018-06-27T06:26:55.506Z,10.80
2018-06-27T06:29:24.725Z,10.80
2018-06-27T06:31:53.866Z,11.53
2018-06-27T06:34:22.589Z,10.37
2018-06-27T06:36:51.352Z,10.40
2018-06-27T06:39:20.131Z,10.93
2018-06-27T06:41:48.798Z,10.50
2018-06-27T06:44:17.468Z,11.17
2018-06-27T06:46:46.183Z,10.70
2018-06-27T06:49:14.838Z,11.97
2018-06-27T06:51:44.006Z,10.03
2018-06-27T06:54:12.863Z,12.10
2018-06-27T06:56:41.628Z,11.50
2018-06-27T06:59:10.483Z,11.90
2018-06-27T07:01:39.484Z,10.90
2018-06-27T07:04:08.603Z,11.87
2018-06-27T07:06:37.572Z,11.30
2018-06-27T07:09:10.268Z,11.67
2018-06-27T07:11:39.839Z,12.20
2018-06-27T07:14:13.098Z,12.17
2018-06-27T07:16:42.004Z,13.17
2018-06-27T07:19:10.794Z,12.63
2018-06-27T07:21:39.541Z,13.33
2018-06-27T07:24:14.672Z,12.40
2018-06-27T07:26:48.015Z,12.70
2018-06-27T07:29:19.952Z,12.80
2018-06-27T07:31:48.862Z,13.07
2018-06-27T07:34:17.626Z,13.57
2018-06-27T07:36:46.372Z,13.57
2018-06-27T07:39:15.191Z,13.20
2018-06-27T07:41:43.895Z,12.77
2018-06-27T07:44:12.600Z,12.03
2018-06-27T07:46:41.483Z,13.13
2018-06-27T07:49:10.244Z,12.53
2018-06-27T07:51:38.949Z,13.90
2018-06-27T07:54:07.677Z,13.13
2018-06-27T07:56:36.433Z,13.63
2018-06-27T07:59:05.290Z,13.20
2018-06-27T08:01:34.078Z,12.67
2018-06-27T08:04:02.936Z,13.13
2018-06-27T08:06:35.719Z,11.50
2018-06-27T08:09:06.857Z,12.47
2018-06-27T08:11:35.511Z,12.87
2018-06-27T08:14:04.335Z,12.50
2018-06-27T08:16:33.060Z,12.80
2018-06-27T08:19:01.788Z,11.40
2018-06-27T08:21:30.444Z,11.60
2018-06-27T08:23:59.153Z,12.10
2018-06-27T08:26:27.981Z,12.37
2018-06-27T08:28:56.511Z,11.60
2018-06-27T08:31:25.223Z,11.20
2018-06-27T08:33:54.054Z,11.03
2018-06-27T08:36:22.794Z,9.40
2018-06-27T08:38:51.631Z,8.70
2018-06-27T08:41:20.506Z,8.23
2018-06-27T08:43:49.556Z,9.67
2018-06-27T08:46:18.256Z,9.50
2018-06-27T08:48:47.142Z,9.63
2018-06-27T08:51:16.929Z,8.27
2018-06-27T08:53:46.791Z,7.87
2018-06-27T08:56:16.493Z,7.77
2018-06-27T08:58:45.473Z,8.43
2018-06-27T09:01:14.536Z,8.40
2018-06-27T09:03:43.540Z,7.40
2018-06-27T09:06:12.626Z,8.10
2018-06-27T09:08:41.645Z,8.53
2018-06-27T09:11:10.754Z,7.77
2018-06-27T09:13:41.989Z,7.43
2018-06-27T09:16:11.132Z,8.40
2018-06-27T09:31:29.898Z,8.30
2018-06-27T09:33:58.748Z,8.37
2018-06-27T09:36:28.392Z,8.57
2018-06-27T09:38:57.597Z,7.90
2018-06-27T09:41:26.693Z,7.87
2018-06-27T09:43:56.008Z,8.70
2018-06-27T09:46:25.348Z,7.40
2018-06-27T09:48:54.519Z,7.50
2018-06-27T09:51:23.515Z,8.50
2018-06-27T09:53:52.631Z,7.80
2018-06-27T09:56:21.783Z,8.10
2018-06-27T09:58:51.514Z,7.73
2018-06-27T10:01:21.762Z,7.87
2018-06-27T10:03:50.872Z,8.10
2018-06-27T10:06:19.999Z,7.20
2018-06-27T10:08:49.300Z,7.33
2018-06-27T10:11:18.497Z,7.07
2018-06-27T10:13:48.533Z,7.10
2018-06-27T10:16:17.762Z,7.20
2018-06-27T10:18:47.449Z,7.13
2018-06-27T10:21:16.751Z,7.60
2018-06-27T10:23:46.307Z,7.37
2018-06-27T10:26:15.307Z,7.03
2018-06-27T10:28:44.456Z,7.73
2018-06-27T10:31:13.525Z,7.73
2018-06-27T10:33:43.121Z,7.23
2018-06-27T10:36:12.051Z,7.40
2018-06-27T10:38:41.233Z,7.00
2018-06-27T10:41:10.156Z,7.83
2018-06-27T10:43:39.002Z,7.90
2018-06-27T10:46:08.268Z,7.60
2018-06-27T10:48:37.927Z,8.33
2018-06-27T10:51:06.940Z,7.40
2018-06-27T10:53:35.904Z,7.60
2018-06-27T10:56:05.309Z,6.70
2018-06-27T10:58:34.701Z,7.40
2018-06-27T11:01:03.943Z,7.53
2018-06-27T11:03:33.095Z,6.73
2018-06-27T11:06:03.856Z,7.20
2018-06-27T11:08:33.160Z,7.07
2018-06-27T11:11:02.097Z,7.40
2018-06-27T11:13:31.080Z,7.30
2018-06-27T11:15:59.832Z,6.20
2018-06-27T11:18:28.925Z,6.10
2018-06-27T11:20:57.705Z,6.17
2018-06-27T11:23:26.784Z,5.90
2018-06-27T11:25:55.684Z,6.73
2018-06-27T11:28:24.802Z,7.20
2018-06-27T11:30:53.708Z,7.27
2018-06-27T11:33:23.453Z,6.73
2018-06-27T11:35:52.339Z,6.30
2018-06-27T11:38:21.371Z,6.70
2018-06-27T11:40:50.280Z,6.73
2018-06-27T11:43:19.504Z,6.50
2018-06-27T11:45:48.557Z,7.03
2018-06-27T11:48:17.352Z,6.40
2018-06-27T11:50:46.483Z,6.83
2018-06-27T11:53:15.468Z,6.20
2018-06-27T11:55:44.297Z,7.40
2018-06-27T11:58:13.198Z,7.10
2018-06-27T12:00:42.100Z,6.60
2018-06-27T12:03:10.920Z,7.67
2018-06-27T12:05:39.982Z,7.67
2018-06-27T12:08:08.911Z,7.50
2018-06-27T12:10:37.792Z,8.17
2018-06-27T12:13:06.940Z,7.93
2018-06-27T12:15:35.808Z,7.87
2018-06-27T12:18:04.664Z,8.07
2018-06-27T12:20:33.736Z,7.70
2018-06-27T12:23:02.715Z,7.30
2018-06-27T12:25:31.678Z,7.17
2018-06-27T12:28:00.739Z,7.30
2018-06-27T12:30:29.636Z,7.53
2018-06-27T12:32:58.569Z,7.30
2018-06-27T12:35:27.601Z,7.30
2018-06-27T12:37:56.512Z,7.60
2018-06-27T12:40:25.520Z,6.33
2018-06-27T12:42:54.486Z,7.57
2018-06-27T12:45:23.707Z,6.90
2018-06-27T12:47:52.678Z,6.27
2018-06-27T12:50:21.823Z,6.80
2018-06-27T12:52:50.792Z,7.10
2018-06-27T12:55:20.219Z,6.63
2018-06-27T12:57:49.666Z,7.20
2018-06-27T13:00:19.438Z,7.80
2018-06-27T13:02:48.324Z,7.80
2018-06-27T13:05:17.688Z,7.87
2018-06-27T13:07:46.681Z,7.50
2018-06-27T13:10:15.611Z,7.20
2018-06-27T13:12:44.570Z,7.73
2018-06-27T13:15:15.016Z,7.70
2018-06-27T13:17:44.101Z,7.63
2018-06-27T13:20:12.981Z,8.00
2018-06-27T13:22:42.046Z,7.03
2018-06-27T13:25:11.171Z,7.17
2018-06-27T13:27:40.734Z,6.20
2018-06-27T13:30:10.573Z,6.83
2018-06-27T13:32:39.478Z,7.50
2018-06-27T13:35:08.581Z,7.43
2018-06-27T13:37:39.006Z,7.97
2018-06-27T13:40:08.187Z,7.97
2018-06-27T13:42:37.344Z,7.80
2018-06-27T13:45:06.833Z,7.43
2018-06-27T13:47:36.322Z,7.97
2018-06-27T13:50:06.313Z,7.80
2018-06-27T13:52:35.989Z,7.30
2018-06-27T13:55:05.501Z,7.37
2018-06-27T13:57:34.732Z,6.97
2018-06-27T14:00:03.878Z,7.00
2018-06-27T14:02:32.982Z,7.63
2018-06-27T14:05:02.542Z,7.40
2018-06-27T14:07:31.485Z,7.10
2018-06-27T14:10:00.460Z,7.80
2018-06-27T14:12:29.412Z,7.63
2018-06-27T14:14:58.357Z,7.70
2018-06-27T14:17:27.565Z,8.50
2018-06-27T14:19:57.501Z,7.63
2018-06-27T14:22:26.577Z,7.40
2018-06-27T14:24:57.011Z,7.63
2018-06-27T14:27:27.611Z,7.60
2018-06-27T14:30:00.707Z,7.80
2018-06-27T14:32:30.115Z,6.70
2018-06-27T14:34:59.323Z,6.83
2018-06-27T14:37:29.263Z,7.47
2018-06-27T14:39:59.235Z,7.67
2018-06-27T14:42:29.195Z,7.40
2018-06-27T14:44:58.244Z,7.50
2018-06-27T14:47:27.228Z,8.80
2018-06-27T14:49:56.130Z,8.30
2018-06-27T14:52:25.345Z,7.90
2018-06-27T14:54:54.639Z,8.33
2018-06-27T14:57:23.746Z,7.40
2018-06-27T14:59:53.332Z,6.47
2018-06-27T15:02:22.843Z,7.80
2018-06-27T15:04:52.062Z,7.63
2018-06-27T15:07:21.593Z,9.63
2018-06-27T15:09:50.849Z,9.90
2018-06-27T15:12:20.876Z,9.20
2018-06-27T15:14:50.208Z,8.70
2018-06-27T15:17:19.209Z,8.83
2018-06-27T15:19:48.133Z,8.93
2018-06-27T15:22:17.446Z,8.50
2018-06-27T15:24:47.125Z,8.70
2018-06-27T15:27:16.119Z,8.63
2018-06-27T15:29:45.773Z,7.60
2018-06-27T15:32:15.520Z,7.00
2018-06-27T15:34:45.880Z,5.90
2018-06-27T15:37:14.813Z,5.73
2018-06-27T15:39:43.721Z,6.10
2018-06-27T15:42:12.874Z,5.10
2018-06-27T15:44:41.897Z,4.50
2018-06-27T15:47:11.367Z,5.07
2018-06-27T15:49:40.332Z,5.30
2018-06-27T15:52:09.383Z,5.50
2018-06-27T15:54:39.285Z,6.63
2018-06-27T15:57:08.987Z,7.03
2018-06-27T15:59:40.653Z,7.80
2018-06-27T16:02:09.930Z,8.60
2018-06-27T16:04:39.608Z,7.93
2018-06-27T16:07:08.743Z,7.10
2018-06-27T16:09:37.717Z,7.20
2018-06-27T16:12:07.003Z,7.17
2018-06-27T16:14:36.653Z,7.57
2018-06-27T16:17:05.925Z,8.17
2018-06-27T16:19:35.179Z,7.03
2018-06-27T16:22:05.018Z,8.07
2018-06-27T16:24:34.371Z,7.90
2018-06-27T16:27:05.319Z,7.80
2018-06-27T16:29:34.908Z,8.77
2018-06-27T16:32:05.043Z,9.60
2018-06-27T16:34:35.690Z,10.53
2018-06-27T16:37:06.528Z,11.23
2018-06-27T16:39:36.003Z,12.07
2018-06-27T16:42:05.211Z,11.83
2018-06-27T16:44:34.853Z,13.40
2018-06-27T16:47:06.652Z,13.60
2018-06-27T16:49:40.225Z,12.87
2018-06-27T16:52:10.078Z,13.10
2018-06-27T16:54:41.919Z,13.70
2018-06-27T16:57:12.552Z,14.37
2018-06-27T16:59:42.704Z,13.20
2018-06-27T17:02:13.970Z,14.23
2018-06-27T17:23:02.160Z,15.90
2018-06-27T17:25:31.620Z,16.00
2018-06-27T17:28:01.254Z,17.87
2018-06-27T17:30:31.578Z,17.13
2018-06-27T17:33:01.602Z,17.33
2018-06-27T17:35:33.954Z,15.87
2018-06-27T17:38:09.188Z,18.53
2018-06-27T17:40:40.287Z,18.10
2018-06-27T17:43:11.403Z,17.33
2018-06-27T17:45:42.128Z,17.30
2018-06-27T17:48:13.306Z,18.97
2018-06-27T17:50:43.394Z,17.23
2018-06-27T17:53:13.067Z,14.40
2018-06-27T17:55:44.069Z,14.50
2018-06-27T17:58:16.275Z,12.70
2018-06-27T18:00:48.417Z,10.80
2018-06-27T18:03:18.576Z,9.70
2018-06-27T18:05:48.708Z,9.90
2018-06-27T18:08:18.207Z,9.37
2018-06-27T18:10:50.503Z,8.47
2018-06-27T18:13:20.141Z,8.10
2018-06-27T18:16:04.532Z,8.60
2018-06-27T18:18:34.465Z,8.70
2018-06-27T18:21:06.658Z,9.23
2018-06-27T18:23:39.096Z,10.40
2018-06-27T18:26:09.930Z,10.30
2018-06-27T18:28:42.247Z,12.73
2018-06-27T18:31:15.007Z,11.07
2018-06-27T18:33:47.490Z,11.60
2018-06-27T18:36:22.306Z,12.60
2018-06-27T18:38:56.584Z,12.73
2018-06-27T18:41:28.823Z,13.37
2018-06-27T18:43:59.713Z,11.83
2018-06-27T18:46:29.129Z,13.00
2018-06-27T18:49:05.411Z,13.20
2018-06-27T18:51:37.651Z,13.77
2018-06-27T18:54:07.682Z,11.60
2018-06-27T18:56:38.298Z,11.37
2018-06-27T18:59:13.441Z,11.40
2018-06-27T19:01:45.342Z,12.20
2018-06-27T19:04:18.775Z,12.10
2018-06-27T19:06:49.059Z,13.97
2018-06-27T19:09:21.087Z,13.30
2018-06-27T19:11:55.187Z,14.40
2018-06-27T19:14:27.382Z,14.43
2018-06-27T19:16:57.388Z,16.73
2018-06-27T19:54:48.890Z,22.83
2018-06-27T19:57:23.205Z,22.90
2018-06-27T20:02:40.482Z,26.80
2018-06-27T20:23:49.889Z,21.00
2018-06-27T20:44:56.395Z,13.07
2018-06-27T20:47:30.710Z,13.20
2018-06-27T20:50:00.420Z,14.33
2018-06-27T20:52:31.488Z,12.90
2018-06-27T20:55:05.420Z,13.63
2018-06-27T20:57:39.018Z,13.80
2018-06-27T21:00:11.701Z,13.40
2018-06-27T21:02:42.874Z,14.40
2018-06-27T21:05:12.762Z,14.00
2018-06-27T21:07:41.901Z,13.30
2018-06-27T21:10:10.703Z,15.60
2018-06-27T21:12:39.438Z,14.10
2018-06-27T21:15:13.112Z,14.17
2018-06-27T21:17:42.815Z,14.40
2018-06-27T21:20:11.831Z,14.37
2018-06-27T21:22:41.257Z,13.80
2018-06-27T21:25:10.866Z,14.63
2018-06-27T21:27:39.861Z,14.13
2018-06-27T21:30:09.738Z,16.23
2018-06-27T21:32:39.359Z,16.33
2018-06-27T21:35:08.306Z,15.43
2018-06-27T21:37:37.339Z,14.60
2018-06-27T21:40:06.172Z,13.73
2018-06-27T21:42:34.924Z,13.30
2018-06-27T21:45:03.883Z,12.70
2018-06-27T21:47:32.671Z,11.20
2018-06-27T21:50:01.596Z,11.27
2018-06-27T21:52:30.307Z,10.47
2018-06-27T21:55:00.639Z,11.77
2018-06-27T21:57:29.395Z,10.27
2018-06-27T21:59:58.134Z,11.40
2018-06-27T22:02:26.965Z,9.37
2018-06-27T22:04:55.685Z,10.07
2018-06-27T22:07:24.705Z,10.50
2018-06-27T22:09:53.382Z,9.07
2018-06-27T22:12:22.042Z,10.10
2018-06-27T22:14:50.767Z,9.50
2018-06-27T22:17:19.612Z,9.80
2018-06-27T22:19:48.377Z,10.13
2018-06-27T22:22:17.243Z,9.77
2018-06-27T22:24:46.031Z,9.87
2018-06-27T22:27:14.838Z,8.97
2018-06-27T22:29:43.565Z,9.47
2018-06-27T22:32:12.330Z,9.50
2018-06-27T22:34:41.045Z,9.00
2018-06-27T22:37:09.746Z,8.87
2018-06-27T22:39:38.538Z,8.77
2018-06-27T22:42:07.263Z,7.70
2018-06-27T22:44:36.043Z,8.60
2018-06-27T22:47:05.018Z,9.17
2018-06-27T22:49:33.748Z,9.10
2018-06-27T22:52:02.564Z,7.60
2018-06-27T22:54:31.360Z,8.50
2018-06-27T22:57:00.189Z,8.67
2018-06-27T22:59:28.950Z,8.00
2018-06-27T23:01:57.681Z,7.87
2018-06-27T23:04:26.405Z,7.80
2018-06-27T23:06:55.101Z,8.33
2018-06-27T23:09:23.891Z,7.80
2018-06-27T23:11:52.668Z,6.80
2018-06-27T23:14:21.981Z,7.67
2018-06-27T23:16:50.803Z,7.67
2018-06-27T23:19:19.570Z,7.80
2018-06-27T23:21:48.220Z,8.20
2018-06-27T23:24:17.028Z,8.13
2018-06-27T23:26:45.722Z,8.60
2018-06-27T23:29:14.462Z,8.00
2018-06-27T23:31:43.168Z,9.30
2018-06-27T23:34:11.902Z,8.90
2018-06-27T23:36:40.559Z,9.13
2018-06-27T23:39:11.373Z,8.50
2018-06-27T23:41:40.383Z,8.33
2018-06-27T23:44:09.188Z,8.03
2018-06-27T23:46:37.976Z,8.67
2018-06-27T23:49:07.072Z,9.00
2018-06-27T23:51:35.770Z,8.50
2018-06-27T23:54:04.529Z,9.20
2018-06-27T23:56:33.240Z,8.37
2018-06-27T23:59:02.023Z,8.93
